Time;durP1;ratioP1;P1;durP2;ratioP2;P2;SDS_P1;SDS_P2;PMS_P1;PMS_P2;Temp;Humidity;BMP_temperature;BMP_pressure;BME280_temperature;BME280_humidity;BME280_pressure;Samples;Min_cycle;Max_cycle;Signal;HPM_P1;HPM_P2
2022/07/28 00:01:52;;;;;;;6.90;3.95;;;;;;;24.21;69.82;98140.97;4999990;28;20042;-67
2022/07/28 00:04:17;;;;;;;8.82;3.80;;;;;;;24.13;70.90;98166.91;5032696;28;20034;-60
2022/07/28 00:06:43;;;;;;;8.02;4.25;;;;;;;23.63;74.07;98165.03;5001613;28;20034;-62
2022/07/28 00:09:08;;;;;;;6.95;3.88;;;;;;;23.56;72.58;98156.41;5000035;28;20489;-60
2022/07/28 00:11:34;;;;;;;8.05;4.28;;;;;;;23.48;72.41;98135.59;4996370;28;20033;-64
2022/07/28 00:13:59;;;;;;;6.28;3.80;;;;;;;23.59;72.55;98163.91;4985697;28;20025;-64
2022/07/28 00:16:25;;;;;;;6.35;3.55;;;;;;;23.57;73.03;98158.03;4999255;28;20117;-61
2022/07/28 00:18:50;;;;;;;6.68;3.85;;;;;;;23.55;74.57;98168.88;5017312;28;20381;-62
2022/07/28 00:21:15;;;;;;;7.22;3.90;;;;;;;23.62;74.40;98166.09;4999230;28;20033;-63
2022/07/28 00:23:41;;;;;;;10.02;4.45;;;;;;;23.44;74.39;98164.47;4999187;28;20102;-60
2022/07/28 00:26:07;;;;;;;8.25;4.00;;;;;;;23.39;77.33;98174.97;5002808;28;20502;-61
2022/07/28 00:28:33;;;;;;;7.40;4.78;;;;;;;23.13;78.47;98171.84;4998860;28;20056;-61
2022/07/28 00:30:58;;;;;;;6.90;4.20;;;;;;;22.54;79.74;98137.53;5002951;28;20448;-60
2022/07/28 00:33:24;;;;;;;6.88;4.10;;;;;;;22.73;79.71;98185.88;5001395;28;20109;-61
2022/07/28 00:35:49;;;;;;;7.38;4.38;;;;;;;22.56;81.33;98174.38;5002132;28;20155;-62
2022/07/28 00:38:14;;;;;;;7.07;4.00;;;;;;;22.75;81.78;98188.31;5000493;28;20064;-61
2022/07/28 00:43:23;;;;;;;7.85;4.38;;;;;;;22.90;77.38;98179.84;5002663;28;20053;-61
2022/07/28 00:45:49;;;;;;;6.65;3.67;;;;;;;22.91;77.37;98173.50;5002191;28;20045;-62
2022/07/28 00:48:14;;;;;;;6.90;3.63;;;;;;;22.98;77.24;98174.16;4998197;28;20405;-62
2022/07/28 00:50:40;;;;;;;7.85;4.05;;;;;;;23.06;77.12;98179.16;5001992;28;20022;-60
2022/07/28 00:53:06;;;;;;;7.13;3.53;;;;;;;23.01;76.01;98148.00;4999338;28;20018;-61
2022/07/28 00:55:32;;;;;;;6.65;3.70;;;;;;;23.00;78.17;98188.81;4999987;28;20029;-64
2022/07/28 00:57:57;;;;;;;6.50;3.85;;;;;;;23.11;76.39;98195.16;5000042;28;20033;-61
2022/07/28 01:00:23;;;;;;;6.15;3.70;;;;;;;23.13;77.42;98197.56;4999554;28;20103;-63
2022/07/28 01:02:48;;;;;;;6.40;4.00;;;;;;;23.15;78.07;98200.78;4998244;28;20024;-59
2022/07/28 01:05:14;;;;;;;7.50;3.92;;;;;;;22.84;80.15;98171.81;5000980;28;20099;-60
2022/07/28 01:07:54;;;;;;;6.22;3.50;;;;;;;23.01;81.46;98205.53;5000132;28;20295;-64
2022/07/28 01:10:27;;;;;;;6.82;3.83;;;;;;;22.93;82.98;98197.94;4997094;28;20157;-61
2022/07/28 01:13:08;;;;;;;8.27;4.60;;;;;;;22.70;86.48;98204.09;5014337;28;20037;-62
2022/07/28 01:15:37;;;;;;;7.15;4.30;;;;;;;22.51;87.06;98156.56;5001186;28;20022;-64
2022/07/28 01:18:08;;;;;;;7.93;4.38;;;;;;;22.68;85.81;98203.53;4997331;28;20029;-63
2022/07/28 01:20:49;;;;;;;7.95;4.35;;;;;;;22.63;84.49;98175.91;4997493;28;20025;-64
2022/07/28 01:23:36;;;;;;;8.52;4.40;;;;;;;22.74;84.69;98200.75;5001069;28;20640;-61
2022/07/28 01:26:37;;;;;;;9.15;4.10;;;;;;;22.89;84.28;98207.41;4995805;28;20037;-62
2022/07/28 01:29:18;;;;;;;9.27;4.00;;;;;;;22.90;81.39;98203.72;5027937;28;20049;-62
2022/07/28 01:31:59;;;;;;;6.80;4.07;;;;;;;22.69;81.61;98157.44;4981379;28;20029;-64
2022/07/28 01:34:41;;;;;;;8.02;4.20;;;;;;;23.00;82.43;98195.97;4997999;28;20028;-62
2022/07/28 01:37:10;;;;;;;6.57;3.95;;;;;;;22.88;82.50;98197.84;4980852;28;20022;-62
2022/07/28 01:39:36;;;;;;;;;;;;;;;22.96;81.96;98202.75;5001397;28;20033;-61
2022/07/28 01:42:04;;;;;;;6.68;3.85;;;;;;;22.95;83.17;98199.31;4999255;28;19917;-60
2022/07/28 01:44:31;;;;;;;7.47;4.43;;;;;;;22.88;82.11;98192.53;4983355;28;20304;-62
2022/07/28 01:46:57;;;;;;;7.68;4.10;;;;;;;22.91;82.02;98189.41;5000939;28;20042;-62
2022/07/28 01:49:25;;;;;;;7.07;3.97;;;;;;;22.81;82.49;98196.13;4999364;28;20045;-62
2022/07/28 01:51:52;;;;;;;6.93;4.00;;;;;;;22.76;82.50;98198.69;5000815;28;20120;-62
2022/07/28 01:54:18;;;;;;;6.88;4.22;;;;;;;22.75;82.43;98189.09;4998705;28;20041;-62
2022/07/28 01:56:43;;;;;;;7.05;4.22;;;;;;;22.71;82.48;98187.97;5002201;28;20018;-60
2022/07/28 01:59:10;;;;;;;8.55;4.30;;;;;;;22.76;82.61;98187.25;4997757;28;20028;-63
2022/07/28 02:01:41;;;;;;;7.78;4.30;;;;;;;22.68;82.24;98190.28;4999865;28;20022;-60
2022/07/28 02:04:08;;;;;;;7.35;4.03;;;;;;;22.57;82.92;98189.25;5000184;28;20725;-62
2022/07/28 02:06:34;;;;;;;6.70;4.40;;;;;;;22.61;82.93;98190.41;4998651;28;20022;-59
2022/07/28 02:09:02;;;;;;;7.22;4.13;;;;;;;22.35;83.08;98154.63;4998017;28;20087;-60
2022/07/28 02:11:40;;;;;;;7.07;4.50;;;;;;;22.61;82.76;98191.19;4999897;28;20022;-62
2022/07/28 02:14:28;;;;;;;6.57;4.10;;;;;;;22.61;82.44;98187.75;4979369;28;20030;-61
2022/07/28 02:16:57;;;;;;;7.22;4.20;;;;;;;22.54;82.83;98179.91;5014480;28;20021;-60
2022/07/28 02:19:23;;;;;;;5.97;3.92;;;;;;;22.55;83.64;98175.44;4998495;28;20060;-60
2022/07/28 02:21:50;;;;;;;8.05;4.82;;;;;;;22.58;84.32;98182.91;4984896;28;20105;-63
2022/07/28 02:24:21;;;;;;;6.25;3.78;;;;;;;22.54;84.54;98174.63;4999019;28;20057;-61
2022/07/28 02:26:50;;;;;;;6.50;4.03;;;;;;;22.60;84.21;98189.59;4998828;28;20061;-61
2022/07/28 02:29:16;;;;;;;6.75;4.35;;;;;;;22.59;84.39;98182.69;4998746;28;20385;-64
2022/07/28 02:31:51;;;;;;;7.80;4.43;;;;;;;22.58;84.22;98190.84;4999949;28;20030;-61
2022/07/28 02:34:20;;;;;;;6.40;3.83;;;;;;;22.57;83.82;98194.56;5000362;28;20033;-60
2022/07/28 02:36:50;;;;;;;7.15;4.22;;;;;;;22.48;84.55;98194.09;5015713;28;20044;-62
2022/07/28 02:39:19;;;;;;;7.15;4.30;;;;;;;22.41;84.67;98201.38;4976398;28;20440;-62
2022/07/28 02:41:47;;;;;;;7.18;4.03;;;;;;;22.44;85.97;98203.56;4998711;28;20029;-60
2022/07/28 02:44:16;;;;;;;8.80;4.35;;;;;;;22.39;85.88;98198.94;4997839;28;20393;-62
2022/07/28 02:46:44;;;;;;;8.65;4.28;;;;;;;22.30;86.11;98194.22;4993300;28;20030;-64
2022/07/28 02:49:12;;;;;;;7.55;3.97;;;;;;;22.41;84.87;98198.72;4997155;28;20109;-64
2022/07/28 02:51:39;;;;;;;8.88;4.40;;;;;;;22.37;84.80;98194.91;4998974;28;20018;-59
2022/07/28 02:54:05;;;;;;;5.95;3.75;;;;;;;22.20;85.54;98163.00;4977327;28;20038;-61
2022/07/28 02:56:31;;;;;;;8.18;4.20;;;;;;;22.45;85.32;98197.22;4997393;28;20034;-61
2022/07/28 02:58:57;;;;;;;6.63;4.10;;;;;;;22.42;85.54;98193.19;4999246;28;20128;-59
2022/07/28 03:01:23;;;;;;;6.38;3.90;;;;;;;22.40;85.46;98187.31;4995651;28;20030;-61
2022/07/28 03:03:49;;;;;;;7.47;4.22;;;;;;;22.22;85.39;98153.78;5000314;28;20149;-59
2022/07/28 03:06:16;;;;;;;7.88;4.60;;;;;;;22.47;85.46;98179.25;4993746;28;20539;-61
2022/07/28 03:08:41;;;;;;;8.27;4.40;;;;;;;22.36;85.27;98146.44;4998269;28;20033;-61
2022/07/28 03:11:07;;;;;;;6.75;4.05;;;;;;;22.54;84.87;98185.22;4994558;28;20018;-63
2022/07/28 03:13:32;;;;;;;6.30;4.30;;;;;;;22.43;84.66;98152.44;4998217;28;20535;-61
2022/07/28 03:15:58;;;;;;;6.30;3.60;;;;;;;22.60;83.93;98173.69;4998810;28;20113;-63
2022/07/28 03:18:26;;;;;;;8.32;4.30;;;;;;;22.52;84.61;98186.50;4998048;28;20068;-59
2022/07/28 03:20:51;;;;;;;6.35;3.83;;;;;;;22.37;85.20;98187.78;4999512;28;20049;-58
2022/07/28 03:23:18;;;;;;;6.63;3.88;;;;;;;22.26;84.89;98154.16;4999826;28;20739;-60
2022/07/28 03:25:45;;;;;;;6.60;3.90;;;;;;;22.35;84.27;98194.34;5002623;28;20018;-58
2022/07/28 03:28:18;;;;;;;7.05;3.97;;;;;;;22.29;84.96;98197.91;4998542;28;20483;-61
2022/07/28 03:30:49;;;;;;;7.00;4.10;;;;;;;22.20;86.21;98197.44;4986653;28;20354;-60
2022/07/28 03:33:14;;;;;;;8.10;3.80;;;;;;;22.24;85.24;98209.97;4995043;28;20045;-62
2022/07/28 03:35:47;;;;;;;7.60;3.60;;;;;;;22.13;84.93;98192.25;4985867;28;20029;-66
2022/07/28 03:38:14;;;;;;;6.45;3.40;;;;;;;22.14;85.75;98211.56;5002784;28;20040;-62
2022/07/28 03:40:41;;;;;;;10.63;4.00;;;;;;;22.22;85.05;98201.44;5002060;28;20025;-60
2022/07/28 03:43:09;;;;;;;6.80;3.75;;;;;;;22.05;85.39;98190.75;4996077;28;20022;-64
2022/07/28 03:45:35;;;;;;;8.10;4.18;;;;;;;22.11;85.42;98196.16;4982529;28;20025;-61
2022/07/28 03:48:00;;;;;;;6.93;3.70;;;;;;;22.18;84.70;98202.16;4998130;28;20049;-64
2022/07/28 03:50:28;;;;;;;7.53;4.07;;;;;;;22.26;84.65;98228.31;5003830;28;20022;-62
2022/07/28 03:52:54;;;;;;;6.47;3.88;;;;;;;22.18;85.31;98218.03;4983508;28;20025;-65
2022/07/28 03:55:20;;;;;;;7.05;3.85;;;;;;;22.17;85.10;98227.00;4984015;28;20026;-63
2022/07/28 03:57:45;;;;;;;6.70;3.97;;;;;;;22.07;85.42;98231.03;5002696;28;20065;-61
2022/07/28 04:00:11;;;;;;;8.13;4.40;;;;;;;22.03;84.73;98215.81;4997826;28;20333;-64
2022/07/28 04:02:42;;;;;;;6.95;4.13;;;;;;;22.05;85.38;98224.31;4999001;28;20820;-63
2022/07/28 04:05:12;;;;;;;8.25;4.38;;;;;;;22.07;86.02;98228.38;4996253;28;20030;-61
2022/07/28 04:07:38;;;;;;;7.07;4.10;;;;;;;22.08;87.00;98218.59;4984809;28;20137;-62
2022/07/28 04:10:07;;;;;;;6.38;3.60;;;;;;;22.15;87.06;98218.50;4982771;28;20733;-60
2022/07/28 04:12:46;;;;;;;;;;;;;;;22.10;86.56;98236.91;4993761;28;20104;-60
2022/07/28 04:15:13;;;;;;;9.38;4.22;;;;;;;22.16;85.91;98233.31;5001442;28;19925;-62
2022/07/28 04:17:38;;;;;;;7.50;4.05;;;;;;;22.20;86.16;98237.16;4994076;28;20034;-61
2022/07/28 04:20:05;;;;;;;7.50;3.80;;;;;;;22.23;85.85;98234.03;4995440;28;20029;-59
2022/07/28 04:22:30;;;;;;;5.90;3.47;;;;;;;22.09;86.58;98222.88;4983529;28;20593;-61
2022/07/28 04:24:55;;;;;;;7.80;3.83;;;;;;;21.84;86.61;98196.59;5003291;28;20077;-61
2022/07/28 04:27:21;;;;;;;7.35;4.40;;;;;;;22.08;86.69;98227.31;4997137;28;20389;-60
2022/07/28 04:29:46;;;;;;;8.80;4.00;;;;;;;22.13;86.67;98228.50;5000931;28;20025;-61
2022/07/28 04:32:12;;;;;;;6.57;3.92;;;;;;;22.22;85.73;98222.63;4998112;28;20120;-61
2022/07/28 04:34:37;;;;;;;6.78;3.63;;;;;;;22.29;85.48;98233.16;4996991;28;20677;-60
2022/07/28 04:37:03;;;;;;;7.05;3.75;;;;;;;22.15;86.27;98232.53;4999830;28;20018;-60
2022/07/28 04:39:28;;;;;;;6.25;4.18;;;;;;;22.18;86.45;98242.66;4996413;28;20032;-65
2022/07/28 04:41:54;;;;;;;6.93;4.45;;;;;;;22.17;86.12;98232.31;4995749;28;20092;-62
2022/07/28 04:44:19;;;;;;;6.35;4.15;;;;;;;22.29;85.46;98248.22;4997044;28;20157;-61
2022/07/28 04:46:46;;;;;;;6.70;4.20;;;;;;;21.98;86.55;98223.66;4998470;28;20029;-60
2022/07/28 04:49:11;;;;;;;9.35;4.72;;;;;;;21.83;87.03;98216.97;4999094;28;20502;-61
2022/07/28 04:51:36;;;;;;;12.02;4.53;;;;;;;22.20;86.73;98258.34;5002676;28;20073;-63
2022/07/28 04:54:02;;;;;;;7.18;4.32;;;;;;;22.13;86.71;98242.53;5002372;28;20018;-60
2022/07/28 04:56:27;;;;;;;6.55;3.95;;;;;;;22.25;87.12;98261.91;4998492;28;20188;-61
2022/07/28 04:58:53;;;;;;;6.55;4.25;;;;;;;22.23;88.33;98253.38;4993302;28;20101;-62
2022/07/28 05:01:20;;;;;;;8.07;4.10;;;;;;;22.33;87.17;98262.63;4999475;28;20033;-58
2022/07/28 05:03:46;;;;;;;7.35;4.45;;;;;;;22.06;87.34;98223.31;5000784;28;20555;-61
2022/07/28 05:06:11;;;;;;;7.88;4.97;;;;;;;22.21;87.78;98268.66;5001147;28;20129;-61
2022/07/28 05:08:37;;;;;;;9.23;4.38;;;;;;;22.18;88.79;98269.16;4994736;28;20278;-61
2022/07/28 05:11:02;;;;;;;7.20;4.50;;;;;;;22.14;89.46;98265.34;4997312;28;20061;-62
2022/07/28 05:13:28;;;;;;;7.28;4.72;;;;;;;22.17;88.93;98272.03;4999560;28;20033;-62
2022/07/28 05:15:53;;;;;;;6.70;4.35;;;;;;;22.22;89.02;98265.00;5000951;28;21867;-61
2022/07/28 05:18:19;;;;;;;6.85;4.40;;;;;;;22.31;88.70;98270.00;5001385;28;20050;-61
2022/07/28 05:20:44;;;;;;;8.15;4.60;;;;;;;22.25;88.75;98258.44;5000370;28;20045;-61
2022/07/28 05:23:11;;;;;;;8.07;4.53;;;;;;;22.19;88.40;98254.84;5003383;28;20029;-64
2022/07/28 05:25:36;;;;;;;7.80;4.50;;;;;;;22.30;88.82;98261.22;5002297;28;20049;-64
2022/07/28 05:28:02;;;;;;;7.90;4.78;;;;;;;22.31;88.18;98256.75;4978806;28;20026;-60
2022/07/28 05:30:28;;;;;;;7.95;4.60;;;;;;;22.38;87.18;98252.13;5006626;28;20037;-60
2022/07/28 05:32:58;;;;;;;6.78;4.55;;;;;;;22.45;87.13;98258.13;4985962;28;20567;-58
2022/07/28 05:35:24;;;;;;;7.68;4.80;;;;;;;22.46;86.77;98260.56;5002273;28;20030;-58
2022/07/28 05:37:50;;;;;;;7.75;4.50;;;;;;;22.49;87.24;98258.47;4985054;28;20037;-63
2022/07/28 05:40:17;;;;;;;9.40;4.30;;;;;;;22.45;86.48;98252.81;5008987;28;20034;-61
2022/07/28 05:42:43;;;;;;;7.30;4.40;;;;;;;22.47;86.36;98253.44;4997777;28;20034;-64
2022/07/28 05:45:10;;;;;;;9.75;4.78;;;;;;;22.28;86.15;98215.63;5002062;28;20488;-59
2022/07/28 05:47:46;;;;;;;6.55;4.38;;;;;;;22.46;86.08;98252.59;4995884;28;20029;-62
2022/07/28 05:50:13;;;;;;;6.10;4.25;;;;;;;22.51;85.11;98259.06;4998648;28;20293;-59
2022/07/28 05:52:39;;;;;;;6.82;4.18;;;;;;;22.61;84.65;98251.34;4996788;28;20049;-64
2022/07/28 05:55:05;;;;;;;6.10;3.88;;;;;;;22.64;86.33;98259.63;4999518;28;20069;-61
2022/07/28 05:57:31;;;;;;;7.57;4.22;;;;;;;22.62;85.69;98266.22;5011781;28;20508;-64
2022/07/28 05:59:56;;;;;;;7.25;4.32;;;;;;;22.48;84.47;98272.78;4998139;28;20030;-62
2022/07/28 06:02:22;;;;;;;7.63;4.28;;;;;;;22.45;83.49;98263.44;5015268;28;20092;-61
2022/07/28 06:04:47;;;;;;;7.18;4.15;;;;;;;22.51;83.15;98273.13;5000251;28;20512;-62
2022/07/28 06:07:13;;;;;;;12.15;5.50;;;;;;;22.49;84.89;98277.84;4997222;28;20025;-59
2022/07/28 06:09:38;;;;;;;9.80;3.95;;;;;;;22.52;83.56;98250.06;4998272;28;20025;-61
2022/07/28 06:12:04;;;;;;;5.82;3.90;;;;;;;22.55;83.68;98274.25;5000566;28;20081;-61
2022/07/28 06:14:29;;;;;;;6.18;4.20;;;;;;;22.41;85.00;98243.75;4999505;28;20057;-64
2022/07/28 06:16:55;;;;;;;5.97;4.00;;;;;;;22.72;85.81;98276.22;4999817;28;20531;-63
2022/07/28 06:19:20;;;;;;;6.65;4.07;;;;;;;22.63;86.90;98273.09;5000594;28;20022;-62
2022/07/28 06:21:46;;;;;;;7.43;4.47;;;;;;;22.62;86.17;98276.81;5001162;28;20058;-64
2022/07/28 06:24:12;;;;;;;7.10;4.57;;;;;;;22.40;84.32;98242.94;4999049;28;20031;-59
2022/07/28 06:26:38;;;;;;;9.50;4.85;;;;;;;22.62;83.53;98282.91;4998186;28;20034;-62
2022/07/28 06:29:04;;;;;;;6.15;3.97;;;;;;;22.72;82.75;98279.66;5015608;28;20443;-65
2022/07/28 06:31:29;;;;;;;9.30;3.97;;;;;;;22.84;82.21;98277.03;5000682;28;20034;-62
2022/07/28 06:33:55;;;;;;;6.40;4.40;;;;;;;22.62;83.87;98287.41;5001750;28;20033;-63
2022/07/28 06:36:20;;;;;;;6.22;4.30;;;;;;;22.66;84.82;98285.91;4997796;28;20029;-64
2022/07/28 06:38:45;;;;;;;6.22;4.30;;;;;;;22.63;84.66;98275.75;5000431;28;20037;-64
2022/07/28 06:41:11;;;;;;;6.72;3.80;;;;;;;22.75;83.15;98275.75;4996662;28;20041;-63
2022/07/28 06:43:36;;;;;;;7.70;4.75;;;;;;;22.71;86.14;98287.84;4993214;28;20026;-63
2022/07/28 06:46:02;;;;;;;7.78;4.15;;;;;;;22.48;86.67;98254.22;4998562;28;20382;-64
2022/07/28 06:48:27;;;;;;;6.90;4.32;;;;;;;22.60;84.63;98261.13;4996046;28;20408;-61
2022/07/28 06:50:53;;;;;;;7.38;4.35;;;;;;;22.65;84.89;98273.69;4996359;28;20030;-60
2022/07/28 06:53:18;;;;;;;8.20;4.60;;;;;;;22.72;84.91;98284.97;4996358;28;20101;-62
2022/07/28 06:55:44;;;;;;;8.32;4.60;;;;;;;22.88;82.57;98288.75;4998742;28;20034;-59
2022/07/28 06:58:09;;;;;;;8.35;4.60;;;;;;;22.77;82.17;98249.84;5000606;28;20042;-63
2022/07/28 07:00:35;;;;;;;6.85;4.78;;;;;;;23.07;83.19;98286.00;5003293;28;20094;-63
2022/07/28 07:03:00;;;;;;;6.90;4.43;;;;;;;23.05;82.17;98280.94;5004111;28;20040;-62
2022/07/28 07:05:28;;;;;;;7.13;4.38;;;;;;;23.10;80.40;98290.84;5001354;28;20476;-62
2022/07/28 07:07:53;;;;;;;6.40;4.18;;;;;;;23.00;82.16;98259.59;5001304;28;20014;-62
2022/07/28 07:10:19;;;;;;;6.45;4.13;;;;;;;23.29;81.51;98291.47;5002647;28;20029;-59
2022/07/28 07:12:44;;;;;;;9.35;4.70;;;;;;;23.13;81.42;98258.56;5000761;28;20026;-61
2022/07/28 07:15:10;;;;;;;7.60;4.88;;;;;;;23.29;80.46;98281.69;5003711;28;20079;-63
2022/07/28 07:17:40;;;;;;;7.25;4.20;;;;;;;23.24;79.77;98257.72;4997501;28;20029;-61
2022/07/28 07:20:07;;;;;;;8.98;4.70;;;;;;;23.50;79.33;98288.19;5008649;28;20080;-62
2022/07/28 07:22:32;;;;;;;7.95;4.35;;;;;;;23.55;80.26;98287.50;4985910;28;20042;-61
2022/07/28 07:25:07;;;;;;;7.28;4.43;;;;;;;23.48;79.70;98286.81;5019186;28;20520;-62
2022/07/28 07:27:32;;;;;;;7.95;4.40;;;;;;;23.67;79.76;98279.47;5001924;28;20068;-61
2022/07/28 07:29:57;;;;;;;6.10;3.85;;;;;;;23.58;79.05;98287.00;5003080;28;20029;-62
2022/07/28 07:32:23;;;;;;;6.03;3.83;;;;;;;23.74;78.81;98280.13;5000636;28;20030;-60
2022/07/28 07:34:48;;;;;;;7.35;4.30;;;;;;;23.76;78.83;98278.84;4996894;28;20096;-62
2022/07/28 07:37:14;;;;;;;7.47;4.72;;;;;;;23.82;78.38;98284.28;4999609;28;20034;-60
2022/07/28 07:39:40;;;;;;;6.95;4.50;;;;;;;23.85;79.70;98284.59;5003339;28;20479;-63
2022/07/28 07:42:05;;;;;;;8.60;4.93;;;;;;;23.97;77.54;98289.88;4997436;28;20026;-60
2022/07/28 07:44:31;;;;;;;7.10;3.97;;;;;;;23.98;77.31;98294.13;5000008;28;20440;-60
2022/07/28 07:46:56;;;;;;;6.20;3.95;;;;;;;23.94;76.49;98290.34;5002951;28;20080;-61
2022/07/28 07:49:21;;;;;;;8.70;4.40;;;;;;;24.05;77.10;98289.47;5001848;28;20034;-61
2022/07/28 07:51:47;;;;;;;7.82;4.10;;;;;;;24.23;76.66;98283.13;5000534;28;20085;-61
2022/07/28 07:54:12;;;;;;;6.50;3.75;;;;;;;24.20;76.54;98286.25;5003386;28;20033;-61
2022/07/28 07:56:38;;;;;;;10.82;5.72;;;;;;;24.23;76.34;98283.13;5002014;28;20033;-61
2022/07/28 07:59:03;;;;;;;7.35;4.28;;;;;;;23.95;76.13;98252.94;4998205;28;20026;-62
2022/07/28 08:01:28;;;;;;;11.55;4.57;;;;;;;24.33;77.01;98293.91;5002817;28;20025;-61
2022/07/28 08:03:54;;;;;;;9.45;4.18;;;;;;;24.34;75.92;98292.06;5000599;28;20080;-61
2022/07/28 08:06:19;;;;;;;7.47;4.28;;;;;;;24.32;76.94;98280.88;5002079;28;20041;-63
2022/07/28 08:08:45;;;;;;;6.93;4.18;;;;;;;24.47;76.48;98285.59;5001578;28;20447;-63
2022/07/28 08:11:11;;;;;;;8.02;4.10;;;;;;;24.39;73.66;98278.84;5001160;28;20038;-60
2022/07/28 08:13:36;;;;;;;7.70;4.00;;;;;;;24.51;74.47;98289.38;5000179;28;20037;-59
2022/07/28 08:16:02;;;;;;;6.07;3.72;;;;;;;24.49;73.55;98276.31;4999188;28;20030;-62
2022/07/28 08:18:28;;;;;;;6.85;4.15;;;;;;;24.82;72.70;98289.84;5016003;28;20084;-63
2022/07/28 08:20:53;;;;;;;6.28;3.85;;;;;;;24.86;72.69;98298.94;5000266;28;20025;-65
2022/07/28 08:23:18;;;;;;;6.13;4.05;;;;;;;24.71;72.52;98287.03;4999952;28;20036;-61
2022/07/28 08:25:44;;;;;;;8.00;4.30;;;;;;;24.62;70.84;98261.94;5000518;28;20868;-62
2022/07/28 08:28:09;;;;;;;6.85;3.80;;;;;;;24.78;72.73;98296.72;4996390;28;20116;-59
2022/07/28 08:30:35;;;;;;;6.93;3.97;;;;;;;25.01;71.43;98282.38;5001278;28;20668;-62
2022/07/28 08:33:01;;;;;;;8.35;4.07;;;;;;;25.53;69.09;98287.28;5000286;28;20038;-62
2022/07/28 08:35:27;;;;;;;8.98;4.10;;;;;;;25.98;66.92;98293.38;4998430;28;20053;-61
2022/07/28 08:37:52;;;;;;;6.53;3.70;;;;;;;26.58;64.37;98297.56;4982311;28;20122;-63
2022/07/28 08:40:18;;;;;;;6.60;3.30;;;;;;;27.17;62.23;98291.22;4997936;28;20172;-61
2022/07/28 08:43:00;;;;;;;6.20;3.63;;;;;;;27.51;60.08;98290.84;5002124;28;20026;-62
2022/07/28 08:45:27;;;;;;;6.78;3.72;;;;;;;27.08;60.52;98292.00;5001722;28;20061;-62
2022/07/28 08:47:55;;;;;;;5.60;3.60;;;;;;;27.30;60.28;98294.50;5000780;28;20037;-58
2022/07/28 08:50:23;;;;;;;8.57;3.75;;;;;;;27.93;58.51;98295.22;4996159;28;20072;-61
2022/07/28 08:52:50;;;;;;;6.18;3.70;;;;;;;28.04;57.63;98297.88;4984204;28;20032;-59
2022/07/28 08:55:22;;;;;;;5.60;3.13;;;;;;;28.01;58.00;98293.88;4999040;28;20057;-63
2022/07/28 08:57:48;;;;;;;5.95;3.75;;;;;;;28.34;56.67;98294.41;4982143;28;20022;-60
2022/07/28 09:00:14;;;;;;;6.28;3.58;;;;;;;28.50;55.62;98290.66;4990934;28;20021;-59
2022/07/28 09:02:46;;;;;;;6.65;4.03;;;;;;;28.80;54.63;98297.03;4998846;28;20036;-64
2022/07/28 09:05:11;;;;;;;6.18;3.58;;;;;;;28.57;54.52;98293.09;4997204;28;20308;-63
2022/07/28 09:07:40;;;;;;;6.35;3.63;;;;;;;28.30;54.70;98293.38;4982874;28;20092;-61
2022/07/28 09:10:06;;;;;;;7.28;3.75;;;;;;;28.53;54.30;98297.38;4977960;28;20021;-62
2022/07/28 09:12:33;;;;;;;6.40;3.40;;;;;;;28.81;52.99;98282.59;4999711;28;20116;-61
2022/07/28 09:15:03;;;;;;;6.50;3.63;;;;;;;28.35;54.88;98277.31;4998750;28;20389;-59
2022/07/28 09:17:29;;;;;;;8.30;3.50;;;;;;;28.16;54.92;98263.69;5011755;28;20026;-60
2022/07/28 09:19:55;;;;;;;6.80;3.70;;;;;;;28.24;53.92;98281.88;5001165;28;20053;-60
2022/07/28 09:22:21;;;;;;;6.57;3.50;;;;;;;28.88;53.01;98293.81;4999465;28;20022;-62
2022/07/28 09:24:46;;;;;;;6.13;3.72;;;;;;;27.86;54.59;98283.16;5002045;28;20485;-60
2022/07/28 09:27:13;;;;;;;6.93;3.53;;;;;;;27.75;54.49;98256.44;5001317;28;20022;-62
2022/07/28 09:29:47;;;;;;;6.60;4.05;;;;;;;28.08;54.23;98285.63;4998332;28;20050;-63
2022/07/28 09:32:14;;;;;;;6.85;3.83;;;;;;;28.21;53.03;98281.59;4994287;28;20045;-64
2022/07/28 09:34:40;;;;;;;8.60;4.50;;;;;;;28.30;53.75;98277.31;4986583;28;20025;-61
2022/07/28 09:37:07;;;;;;;5.80;3.70;;;;;;;28.54;51.72;98277.59;4998122;28;20234;-60
2022/07/28 09:39:35;;;;;;;6.93;3.80;;;;;;;28.06;53.05;98277.88;4998491;28;20034;-60
2022/07/28 09:42:01;;;;;;;11.48;4.28;;;;;;;28.02;52.65;98278.66;4982440;28;20049;-60
2022/07/28 09:44:27;;;;;;;8.15;4.20;;;;;;;27.69;53.43;98273.53;4999331;28;20061;-61
2022/07/28 09:46:54;;;;;;;7.03;3.92;;;;;;;27.85;52.58;98262.84;4976911;28;20020;-63
2022/07/28 09:49:20;;;;;;;6.78;3.80;;;;;;;27.83;51.63;98262.31;4999919;28;20879;-61
2022/07/28 09:52:00;;;;;;;6.45;3.90;;;;;;;27.68;52.20;98269.25;4984470;28;20076;-60
2022/07/28 09:54:25;;;;;;;6.05;3.90;;;;;;;27.53;53.04;98234.53;4977467;28;20058;-62
2022/07/28 09:56:51;;;;;;;6.72;3.53;;;;;;;27.26;53.32;98224.84;5000379;28;20030;-61
2022/07/28 09:59:17;;;;;;;6.65;3.83;;;;;;;27.43;53.58;98251.28;5000386;28;20056;-61
2022/07/28 10:01:58;;;;;;;6.05;3.70;;;;;;;27.62;52.22;98256.97;5001874;28;20026;-59
2022/07/28 10:04:29;;;;;;;5.82;3.72;;;;;;;27.69;52.50;98254.84;4996683;28;20088;-60
2022/07/28 10:07:08;;;;;;;7.88;3.97;;;;;;;27.64;52.98;98262.00;4998142;28;20025;-60
2022/07/28 10:09:35;;;;;;;5.93;3.20;;;;;;;27.51;51.85;98261.47;4997285;28;20104;-61
2022/07/28 10:12:24;;;;;;;6.53;3.75;;;;;;;27.35;51.83;98254.50;4993097;28;20444;-60
2022/07/28 10:14:51;;;;;;;6.68;3.70;;;;;;;27.33;51.03;98254.75;5007730;28;20013;-58
2022/07/28 10:17:29;;;;;;;5.88;3.38;;;;;;;27.09;52.26;98218.88;4986214;28;20034;-62
2022/07/28 10:19:57;;;;;;;7.53;3.73;;;;;;;27.18;50.95;98250.16;5003148;28;20069;-63
2022/07/28 10:22:25;;;;;;;6.00;3.90;;;;;;;27.21;51.51;98257.59;5000985;28;20133;-64
2022/07/28 10:24:52;;;;;;;6.27;3.60;;;;;;;27.08;51.53;98220.75;4986456;28;20022;-60
2022/07/28 10:27:23;;;;;;;6.90;3.70;;;;;;;27.29;51.75;98245.66;5019449;28;20022;-62
2022/07/28 10:29:54;;;;;;;7.05;3.60;;;;;;;27.24;52.09;98253.63;4995504;28;20080;-62
2022/07/28 10:32:19;;;;;;;5.75;3.53;;;;;;;27.45;51.95;98241.16;4995295;28;20125;-63
2022/07/28 10:34:49;;;;;;;6.82;4.00;;;;;;;27.41;50.51;98242.75;4998955;28;20032;-63
2022/07/28 10:37:22;;;;;;;6.57;3.88;;;;;;;27.24;49.91;98241.06;4981184;28;20422;-62
2022/07/28 10:39:52;;;;;;;6.78;3.80;;;;;;;27.22;52.00;98237.09;5000181;28;20121;-60
2022/07/28 10:42:18;;;;;;;8.98;4.00;;;;;;;27.40;51.83;98236.63;5002471;28;20034;-62
2022/07/28 10:44:45;;;;;;;6.15;3.67;;;;;;;27.49;52.72;98241.44;5019281;28;20080;-62
2022/07/28 10:47:11;;;;;;;6.53;3.85;;;;;;;27.38;52.93;98216.56;5019409;28;20435;-61
2022/07/28 10:49:38;;;;;;;6.35;4.20;;;;;;;27.66;52.42;98231.31;4983838;28;20022;-63
2022/07/28 10:52:05;;;;;;;6.13;3.63;;;;;;;27.84;51.14;98234.53;5000430;28;20496;-62
2022/07/28 10:54:34;;;;;;;7.32;3.70;;;;;;;27.95;51.47;98239.66;4997672;28;20045;-59
2022/07/28 10:57:00;;;;;;;;;;;;;;;28.03;51.06;98235.63;5000558;28;20578;-62
2022/07/28 10:59:31;;;;;;;5.82;3.70;;;;;;;28.04;51.50;98233.75;4998502;28;19914;-63
2022/07/28 11:01:57;;;;;;;7.22;3.67;;;;;;;28.21;50.15;98231.63;4999201;28;20030;-62
2022/07/28 11:04:47;;;;;;;7.85;3.83;;;;;;;28.06;50.30;98224.41;5008409;28;20040;-62
2022/07/28 11:07:14;;;;;;;6.32;3.67;;;;;;;27.91;48.98;98227.06;4998021;28;20068;-64
2022/07/28 11:09:40;;;;;;;6.65;3.58;;;;;;;27.65;51.17;98224.38;4984318;28;20062;-60
2022/07/28 11:12:05;;;;;;;6.10;3.60;;;;;;;27.90;50.24;98228.16;5018019;28;20050;-60
2022/07/28 11:14:36;;;;;;;6.75;3.75;;;;;;;27.63;48.95;98213.16;5001276;28;20028;-59
2022/07/28 11:17:04;;;;;;;6.22;3.90;;;;;;;27.71;49.92;98222.50;4995805;28;20118;-60
2022/07/28 11:19:50;;;;;;;8.02;3.85;;;;;;;27.86;48.03;98222.53;5001327;28;20032;-62
2022/07/28 11:22:18;;;;;;;7.00;3.63;;;;;;;28.09;49.86;98220.41;4998626;28;20022;-60
2022/07/28 11:24:55;;;;;;;6.43;3.92;;;;;;;28.01;49.94;98204.91;4999398;28;20366;-59
2022/07/28 11:27:39;;;;;;;5.60;3.65;;;;;;;28.13;50.48;98211.59;5003945;28;20045;-60
2022/07/28 11:30:09;;;;;;;6.45;3.95;;;;;;;28.41;49.50;98204.06;5002169;28;20060;-61
2022/07/28 11:32:58;;;;;;;6.90;3.63;;;;;;;28.38;48.96;98205.41;5000597;28;20670;-58
2022/07/28 11:35:30;;;;;;;6.60;4.05;;;;;;;28.27;47.91;98203.00;4995258;28;20049;-60
2022/07/28 11:38:01;;;;;;;9.65;4.53;;;;;;;28.16;46.96;98170.94;4981669;28;20042;-62
2022/07/28 11:40:38;;;;;;;6.38;4.35;;;;;;;28.30;47.48;98197.94;5003342;28;20080;-60